createdAt,value
2022-08-12T00:00:43.973Z,101884.25
2022-08-12T00:03:30.216Z,101891.97
2022-08-12T00:06:15.905Z,101885.19
2022-08-12T00:09:01.997Z,101889.91
2022-08-12T00:11:47.254Z,101891.22
2022-08-12T00:14:33.008Z,101890.22
2022-08-12T00:17:18.012Z,101882.78
2022-08-12T00:20:07.995Z,101879.06
2022-08-12T00:22:59.839Z,101888.97
2022-08-12T00:26:20.235Z,101890.22
2022-08-12T00:28:59.514Z,101874.78
2022-08-12T00:31:44.646Z,101878.22
2022-08-12T00:34:31.138Z,101878.09
2022-08-12T00:37:19.637Z,101880.81
2022-08-12T00:40:04.795Z,101877.06
2022-08-12T00:42:38.281Z,101879.91
2022-08-12T00:45:06.171Z,101877.50
2022-08-12T00:47:33.758Z,101888.38
2022-08-12T00:50:04.622Z,101874.78
2022-08-12T00:52:34.755Z,101886.50
2022-08-12T00:55:04.201Z,101884.91
2022-08-12T00:57:33.403Z,101875.91
2022-08-12T01:00:01.820Z,101872.06
2022-08-12T01:02:30.966Z,101875.34
2022-08-12T01:05:17.348Z,101879.47
2022-08-12T01:08:03.851Z,101881.63
2022-08-12T01:10:49.258Z,101886.19
2022-08-12T01:13:20.058Z,101884.34
2022-08-12T01:15:49.263Z,101879.03
2022-08-12T01:18:17.412Z,101881.88
2022-08-12T01:20:48.717Z,101881.03
2022-08-12T01:23:24.368Z,101881.31
2022-08-12T01:25:56.242Z,101886.09
2022-08-12T01:28:24.106Z,101887.09
2022-08-12T01:30:51.662Z,101882.53
2022-08-12T01:33:19.355Z,101884.13
2022-08-12T01:35:57.845Z,101884.13
2022-08-12T01:38:35.615Z,101875.34
2022-08-12T01:41:04.658Z,101882.91
2022-08-12T01:43:32.373Z,101891.81
2022-08-12T01:46:02.396Z,101879.22
2022-08-12T01:48:30.840Z,101874.06
2022-08-12T01:51:06.706Z,101872.31
2022-08-12T01:53:50.476Z,101874.06
2022-08-12T01:56:30.048Z,101878.78
2022-08-12T01:59:15.856Z,101888.19
2022-08-12T02:01:44.137Z,101885.47
2022-08-12T02:04:31.887Z,101881.75
2022-08-12T02:07:19.887Z,101889.16
2022-08-12T02:10:09.131Z,101886.00
2022-08-12T02:13:00.208Z,101873.13
2022-08-12T02:15:28.573Z,101876.84
2022-08-12T02:18:00.157Z,101876.84
2022-08-12T02:20:35.346Z,101872.28
2022-08-12T02:23:16.789Z,101873.13
2022-08-12T02:25:44.594Z,101870.66
2022-08-12T02:28:13.436Z,101872.66
2022-08-12T02:30:41.813Z,101873.69
2022-08-12T02:33:09.713Z,101875.66
2022-08-12T02:35:37.582Z,101886.78
2022-08-12T02:38:06.230Z,101872.47
2022-08-12T02:40:35.302Z,101883.22
2022-08-12T02:43:03.919Z,101881.63
2022-08-12T02:45:38.131Z,101864.72
2022-08-12T02:48:07.329Z,101872.75
2022-08-12T02:50:35.154Z,101872.75
2022-08-12T02:53:05.083Z,101876.44
2022-08-12T02:55:35.233Z,101870.16
2022-08-12T02:58:06.980Z,101869.31
2022-08-12T03:00:41.165Z,101873.00
2022-08-12T03:03:09.139Z,101866.97
2022-08-12T03:05:44.156Z,101875.00
2022-08-12T03:08:19.083Z,101865.84
2022-08-12T03:11:00.825Z,101864.13
2022-08-12T03:13:29.296Z,101870.69
2022-08-12T03:15:58.835Z,101880.84
2022-08-12T03:18:29.153Z,101877.53
2022-08-12T03:20:56.757Z,101884.94
2022-08-12T03:23:29.857Z,101875.94
2022-08-12T03:25:58.874Z,101885.06
2022-08-12T03:28:44.330Z,101890.50
2022-08-12T03:31:13.184Z,101881.50
2022-08-12T03:33:43.758Z,101892.63
2022-08-12T03:36:17.959Z,101893.72
2022-08-12T03:38:50.714Z,101894.88
2022-08-12T03:41:37.242Z,101887.69
2022-08-12T03:44:25.746Z,101887.97
2022-08-12T03:47:14.726Z,101885.25
2022-08-12T03:49:59.919Z,101890.69
2022-08-12T03:52:44.987Z,101887.84
2022-08-12T03:55:30.302Z,101887.97
2022-08-12T03:58:15.434Z,101896.25
2022-08-12T04:00:43.065Z,101895.41
2022-08-12T04:03:26.011Z,101898.38
2022-08-12T04:05:55.267Z,101894.81
2022-08-12T04:08:24.034Z,101896.75
2022-08-12T04:11:09.016Z,101894.03
2022-08-12T04:13:36.546Z,101907.88
2022-08-12T04:16:06.578Z,101907.03
2022-08-12T04:18:35.408Z,101905.03
2022-08-12T04:21:03.583Z,101901.72
2022-08-12T04:23:31.331Z,101907.28
2022-08-12T04:25:58.793Z,101898.16
2022-08-12T04:28:27.550Z,101891.13
2022-08-12T04:30:57.068Z,101900.28
2022-08-12T04:33:25.107Z,101893.84
2022-08-12T04:35:54.232Z,101898.41
2022-08-12T04:38:21.721Z,101903.84
2022-08-12T04:40:49.242Z,101906.69
2022-08-12T04:43:59.826Z,101907.53
2022-08-12T04:46:04.744Z,101902.22
2022-08-12T04:48:32.225Z,101900.38
2022-08-12T04:51:01.907Z,101903.00
2022-08-12T04:53:29.421Z,101903.84
2022-08-12T04:55:56.945Z,101901.25
2022-08-12T04:58:29.796Z,101904.06
2022-08-12T05:00:57.702Z,101901.47
2022-08-12T05:03:25.474Z,101904.06
2022-08-12T05:05:52.990Z,101905.81
2022-08-12T05:08:22.471Z,101899.25
2022-08-12T05:10:50.528Z,101907.16
2022-08-12T05:13:18.433Z,101904.44
2022-08-12T05:16:04.775Z,101912.47
2022-08-12T05:18:33.627Z,101906.78
2022-08-12T05:21:02.665Z,101908.50
2022-08-12T05:23:32.341Z,101903.94
2022-08-12T05:26:00.974Z,101907.38
2022-08-12T05:28:29.048Z,101911.22
2022-08-12T05:30:56.745Z,101918.22
2022-08-12T05:33:31.503Z,101915.50
2022-08-12T05:35:59.020Z,101908.00
2022-08-12T05:38:44.099Z,101916.41
2022-08-12T05:41:20.314Z,101912.28
2022-08-12T05:43:51.362Z,101918.34
2022-08-12T05:46:19.049Z,101919.06
2022-08-12T05:48:46.498Z,101915.56
2022-08-12T05:51:14.013Z,101912.84
2022-08-12T05:53:41.626Z,101917.28
2022-08-12T05:56:20.537Z,101925.41
2022-08-12T05:58:48.280Z,101924.19
2022-08-12T06:02:12.621Z,101930.47
2022-08-12T06:04:03.384Z,101931.34
2022-08-12T06:06:39.709Z,101926.50
2022-08-12T06:09:10.096Z,101936.22
2022-08-12T06:11:41.397Z,101933.59
2022-08-12T06:14:28.986Z,101923.59
2022-08-12T06:16:57.645Z,101932.59
2022-08-12T06:20:27.071Z,101934.47
2022-08-12T06:22:18.828Z,101930.63
2022-08-12T06:24:48.403Z,101934.91
2022-08-12T06:27:18.799Z,101914.78
2022-08-12T06:30:08.821Z,101925.53
2022-08-12T06:32:34.545Z,101932.41
2022-08-12T06:35:25.701Z,101928.56
2022-08-12T06:37:56.732Z,101931.16
2022-08-12T06:40:39.015Z,101931.00
2022-08-12T06:43:07.970Z,101926.44
2022-08-12T06:45:45.094Z,101922.72
2022-08-12T06:48:14.008Z,101917.28
2022-08-12T06:51:08.586Z,101931.59
2022-08-12T06:53:36.242Z,101923.44
2022-08-12T06:56:03.924Z,101923.31
2022-08-12T06:58:32.861Z,101911.31
2022-08-12T07:01:00.713Z,101921.22
2022-08-12T07:03:28.604Z,101919.38
2022-08-12T07:05:56.343Z,101919.38
2022-08-12T07:08:25.536Z,101923.78
2022-08-12T07:10:57.356Z,101920.94
2022-08-12T07:13:25.090Z,101917.22
2022-08-12T07:15:55.561Z,101918.22
2022-08-12T07:18:27.305Z,101919.81
2022-08-12T07:20:54.805Z,101921.69
2022-08-12T07:23:22.318Z,101923.38
2022-08-12T07:25:49.805Z,101917.94
2022-08-12T07:28:18.035Z,101921.41
2022-08-12T07:30:45.916Z,101919.56
2022-08-12T07:33:16.764Z,101919.41
2022-08-12T07:35:45.512Z,101928.56
2022-08-12T07:38:29.177Z,101925.72
2022-08-12T07:40:58.511Z,101927.44
2022-08-12T07:43:26.542Z,101917.41
2022-08-12T07:45:55.036Z,101919.16
2022-08-12T07:48:24.196Z,101911.41
2022-08-12T07:50:51.850Z,101911.84
2022-08-12T07:53:19.808Z,101920.72
2022-08-12T07:55:47.877Z,101916.16
2022-08-12T07:58:15.988Z,101913.44
2022-08-12T08:00:44.092Z,101917.88
2022-08-12T08:03:13.359Z,101915.00
2022-08-12T08:05:46.206Z,101918.63
2022-08-12T08:08:14.280Z,101919.31
2022-08-12T08:10:41.843Z,101922.91
2022-08-12T08:13:12.533Z,101924.78
2022-08-12T08:18:28.864Z,101923.66
2022-08-12T08:20:57.856Z,101917.19
2022-08-12T08:23:56.312Z,101918.06
2022-08-12T08:26:27.011Z,101913.47
2022-08-12T08:28:54.686Z,101920.78
2022-08-12T08:31:22.618Z,101912.50
2022-08-12T08:34:05.200Z,101905.19
2022-08-12T08:36:40.387Z,101901.47
2022-08-12T08:39:10.002Z,101906.91
2022-08-12T08:42:19.028Z,101909.38
2022-08-12T08:44:42.843Z,101903.94
2022-08-12T08:47:10.816Z,101904.78
2022-08-12T08:49:38.379Z,101912.09
2022-08-12T08:52:07.800Z,101906.47
2022-08-12T08:54:35.298Z,101913.66
2022-08-12T08:57:02.827Z,101906.34
2022-08-12T08:59:30.351Z,101915.25
2022-08-12T09:01:58.080Z,101907.81
2022-08-12T09:05:14.633Z,101911.38
2022-08-12T09:07:51.287Z,101909.53
2022-08-12T09:10:15.555Z,101903.06
2022-08-12T09:13:22.900Z,101904.09
2022-08-12T09:18:41.204Z,101898.38
2022-08-12T09:21:09.807Z,101899.22
2022-08-12T09:24:00.216Z,101901.94
2022-08-12T09:26:28.301Z,101901.81
2022-08-12T09:28:56.926Z,101890.50
2022-08-12T09:32:03.915Z,101899.81
2022-08-12T09:34:25.651Z,101900.81
2022-08-12T09:37:00.620Z,101893.50
2022-08-12T09:40:05.338Z,101898.81
2022-08-12T09:42:56.851Z,101891.50
2022-08-12T09:46:11.147Z,101893.25
2022-08-12T09:48:20.449Z,101891.38
2022-08-12T09:50:52.140Z,101888.50
2022-08-12T09:53:29.516Z,101879.34
2022-08-12T09:56:58.209Z,101877.47
2022-08-12T09:58:59.584Z,101874.75
2022-08-12T10:01:35.451Z,101872.03
2022-08-12T10:04:19.622Z,101867.31
2022-08-12T10:06:55.715Z,101875.47
2022-08-12T10:09:57.120Z,101859.16
2022-08-12T10:12:33.433Z,101859.00
2022-08-12T10:16:03.105Z,101852.72
2022-08-12T10:18:08.008Z,101853.44
2022-08-12T10:20:35.654Z,101848.88
2022-08-12T10:23:03.807Z,101847.00
2022-08-12T10:26:35.409Z,101836.09
2022-08-12T10:29:02.622Z,101829.66
2022-08-12T10:32:19.594Z,101834.97
2022-08-12T10:34:25.864Z,101821.38
2022-08-12T10:36:56.161Z,101837.56
2022-08-12T10:39:59.930Z,101831.97
2022-08-12T10:42:29.898Z,101823.94
2022-08-12T10:45:01.024Z,101823.94
2022-08-12T10:48:07.182Z,101820.22
2022-08-12T10:50:35.769Z,101818.38
2022-08-12T10:53:08.715Z,101823.66
2022-08-12T10:55:36.926Z,101814.47
2022-08-12T10:58:15.224Z,101810.91
2022-08-12T11:01:25.635Z,101811.75
2022-08-12T11:04:26.473Z,101812.50
2022-08-12T11:07:10.115Z,101801.59
2022-08-12T11:09:18.534Z,101804.34
2022-08-12T11:12:35.566Z,101809.59
2022-08-12T11:14:56.757Z,101809.59
2022-08-12T11:17:43.674Z,101792.13
2022-08-12T11:20:16.272Z,101809.31
2022-08-12T11:22:57.794Z,101804.91
2022-08-12T11:25:56.259Z,101790.25
2022-08-12T11:28:14.317Z,101803.88
2022-08-12T11:30:42.124Z,101788.44
2022-08-12T11:33:12.164Z,101784.69
2022-08-12T11:35:56.287Z,101787.41
2022-08-12T11:38:26.787Z,101783.69
2022-08-12T11:40:54.463Z,101779.25
2022-08-12T11:43:22.230Z,101786.41
2022-08-12T11:45:52.913Z,101778.25
2022-08-12T11:48:27.022Z,101777.25
2022-08-12T11:50:54.938Z,101764.50
2022-08-12T11:53:58.490Z,101773.50
2022-08-12T11:56:11.276Z,101768.06
2022-08-12T12:00:53.121Z,101768.06
2022-08-12T12:02:01.607Z,101768.94
2022-08-12T12:04:28.705Z,101772.50
2022-08-12T12:07:07.207Z,101775.97
2022-08-12T12:09:52.235Z,101768.69
2022-08-12T12:12:21.452Z,101774.97
2022-08-12T12:14:55.020Z,101766.81
2022-08-12T12:17:23.775Z,101766.69
2022-08-12T12:19:53.126Z,101772.97
2022-08-12T12:22:23.086Z,101756.63
2022-08-12T12:24:51.335Z,101749.34
2022-08-12T12:27:19.247Z,101742.88
2022-08-12T12:30:18.573Z,101738.31
2022-08-12T12:32:34.737Z,101744.59
2022-08-12T12:35:18.179Z,101730.84
2022-08-12T12:38:03.806Z,101733.56
2022-08-12T12:40:35.450Z,101731.69
2022-08-12T12:43:07.635Z,101731.56
2022-08-12T12:45:36.198Z,101738.00
2022-08-12T12:48:04.239Z,101721.25
2022-08-12T12:50:35.809Z,101728.81
2022-08-12T12:53:10.226Z,101729.69
2022-08-12T12:55:57.711Z,101731.41
2022-08-12T12:58:26.550Z,101732.25
2022-08-12T13:01:01.238Z,101733.13
2022-08-12T13:03:49.405Z,101729.38
2022-08-12T13:06:19.133Z,101730.25
2022-08-12T13:08:48.803Z,101718.50
2022-08-12T13:11:16.333Z,101731.97
2022-08-12T13:14:09.845Z,101721.06
2022-08-12T13:16:31.476Z,101720.06
2022-08-12T13:18:59.073Z,101719.94
2022-08-12T13:21:36.685Z,101726.22
2022-08-12T13:24:10.853Z,101726.38
2022-08-12T13:26:39.997Z,101720.78
2022-08-12T13:29:11.373Z,101721.66
2022-08-12T13:31:46.362Z,101718.06
2022-08-12T13:34:35.649Z,101718.94
2022-08-12T13:37:09.732Z,101720.63
2022-08-12T13:39:37.735Z,101712.47
2022-08-12T13:42:13.906Z,101713.34
2022-08-12T13:44:42.551Z,101710.63
2022-08-12T13:47:18.810Z,101711.47
2022-08-12T13:49:55.128Z,101715.03
2022-08-12T13:52:25.564Z,101693.84
2022-08-12T13:54:54.205Z,101714.91
2022-08-12T13:57:25.548Z,101705.03
2022-08-12T13:59:55.656Z,101705.88
2022-08-12T14:02:28.213Z,101700.44
2022-08-12T14:04:56.440Z,101703.16
2022-08-12T14:07:27.520Z,101702.16
2022-08-12T14:10:16.178Z,101702.88
2022-08-12T14:12:54.030Z,101709.31
2022-08-12T14:15:36.431Z,101702.16
2022-08-12T14:18:08.759Z,101690.09
2022-08-12T14:20:36.257Z,101699.13
2022-08-12T14:24:01.506Z,101686.53
2022-08-12T14:25:58.858Z,101687.22
2022-08-12T14:28:26.494Z,101693.53
2022-08-12T14:31:00.687Z,101682.47
2022-08-12T14:33:29.522Z,101679.47
2022-08-12T14:36:11.815Z,101674.00
2022-08-12T14:38:42.072Z,101678.63
2022-08-12T14:41:10.549Z,101684.91
2022-08-12T14:43:44.306Z,101680.50
2022-08-12T14:46:27.889Z,101683.06
2022-08-12T14:48:55.727Z,101683.91
2022-08-12T14:52:44.302Z,101681.19
2022-08-12T14:57:18.960Z,101670.28
2022-08-12T15:00:05.281Z,101671.16
2022-08-12T15:02:34.253Z,101661.97
2022-08-12T15:05:04.307Z,101661.13
2022-08-12T15:07:33.358Z,101648.34
2022-08-12T15:10:13.556Z,101650.09
2022-08-12T15:12:41.451Z,101639.34
2022-08-12T15:15:10.593Z,101654.50
2022-08-12T15:17:39.846Z,101652.66
2022-08-12T15:20:31.365Z,101652.50
2022-08-12T15:22:58.121Z,101648.91
2022-08-12T15:25:27.204Z,101640.72
2022-08-12T15:28:04.156Z,101631.56
2022-08-12T15:30:34.483Z,101632.56
2022-08-12T15:33:03.256Z,101635.28
2022-08-12T15:35:52.173Z,101624.38
2022-08-12T15:38:21.730Z,101630.56
2022-08-12T15:40:52.378Z,101622.41
2022-08-12T15:43:52.057Z,101625.97
2022-08-12T15:46:15.650Z,101617.94
2022-08-12T15:48:46.441Z,101629.53
2022-08-12T15:51:17.072Z,101635.88
2022-08-12T15:54:02.717Z,101631.28
2022-08-12T15:56:37.027Z,101631.28
2022-08-12T15:59:05.251Z,101627.69
2022-08-12T16:01:35.395Z,101626.66
2022-08-12T16:04:05.333Z,101619.53
2022-08-12T16:09:56.747Z,101628.41
2022-08-12T16:12:14.696Z,101630.09
2022-08-12T16:14:42.378Z,101628.25
2022-08-12T16:17:14.774Z,101629.25
2022-08-12T16:20:05.183Z,101620.91
2022-08-12T16:22:31.682Z,101620.06
2022-08-12T16:25:01.033Z,101610.03
2022-08-12T16:27:38.325Z,101616.31
2022-08-12T16:30:07.059Z,101616.31
2022-08-12T16:32:36.848Z,101612.75
2022-08-12T16:35:06.358Z,101610.03
2022-08-12T16:38:25.613Z,101609.88
2022-08-12T16:40:23.864Z,101612.59
2022-08-12T16:43:01.807Z,101612.59
2022-08-12T16:46:04.142Z,101615.31
2022-08-12T16:48:34.072Z,101610.56
2022-08-12T16:51:04.011Z,101616.00
2022-08-12T16:53:44.118Z,101599.53
2022-08-12T16:56:15.335Z,101599.38
2022-08-12T16:58:44.917Z,101612.00
2022-08-12T17:01:14.549Z,101602.81
2022-08-12T17:03:52.129Z,101594.81
2022-08-12T17:06:22.631Z,101594.66
2022-08-12T17:09:02.384Z,101590.19
2022-08-12T17:11:30.467Z,101590.19
2022-08-12T17:13:59.885Z,101587.47
2022-08-12T17:16:30.067Z,101582.19
2022-08-12T17:18:59.685Z,101582.03
2022-08-12T17:21:41.157Z,101575.72
2022-08-12T17:24:21.419Z,101567.28
2022-08-12T17:26:50.423Z,101579.31
2022-08-12T17:29:31.964Z,101570.13
2022-08-12T17:32:10.059Z,101569.25
2022-08-12T17:34:55.152Z,101571.81
2022-08-12T17:37:22.754Z,101564.69
2022-08-12T17:40:14.848Z,101565.53
2022-08-12T17:42:38.424Z,101566.38
2022-08-12T17:45:18.430Z,101567.25
2022-08-12T17:48:04.663Z,101571.81
2022-08-12T17:50:33.683Z,101569.97
2022-08-12T17:53:03.280Z,101568.09
2022-08-12T17:55:44.505Z,101567.25
2022-08-12T17:58:16.242Z,101573.53
2022-08-12T18:00:45.563Z,101574.41
2022-08-12T18:04:05.498Z,101573.53
2022-08-12T18:06:08.498Z,101579.84
2022-08-12T18:08:54.491Z,101575.28
2022-08-12T18:12:06.247Z,101579.00
2022-08-12T18:14:28.700Z,101579.69
2022-08-12T18:17:01.245Z,101578.84
2022-08-12T18:20:04.123Z,101587.03
2022-08-12T18:22:17.525Z,101585.13
2022-08-12T18:24:49.323Z,101583.28
2022-08-12T18:27:41.005Z,101583.44
2022-08-12T18:30:16.394Z,101591.47
2022-08-12T18:32:58.465Z,101593.31
2022-08-12T18:35:46.249Z,101592.31
2022-08-12T18:38:16.604Z,101596.91
2022-08-12T18:41:02.113Z,101600.50
2022-08-12T18:43:31.612Z,101600.50
2022-08-12T18:46:12.040Z,101597.78
2022-08-12T18:48:41.851Z,101603.22
2022-08-12T18:51:21.888Z,101595.91
2022-08-12T18:54:05.024Z,101598.63
2022-08-12T18:56:34.470Z,101604.06
2022-08-12T18:59:02.294Z,101606.78
2022-08-12T19:02:21.403Z,101599.66
2022-08-12T19:04:21.892Z,101604.94
2022-08-12T19:06:53.494Z,101601.34
2022-08-12T19:09:21.210Z,101603.91
2022-08-12T19:12:06.294Z,101606.78
2022-08-12T19:14:35.468Z,101610.41
2022-08-12T19:17:04.995Z,101617.69
2022-08-12T19:19:41.483Z,101615.69
2022-08-12T19:22:09.724Z,101617.53
2022-08-12T19:24:54.782Z,101613.13
2022-08-12T19:27:22.365Z,101603.06
2022-08-12T19:30:06.569Z,101602.66
2022-08-12T19:32:36.892Z,101604.94
2022-08-12T19:38:06.412Z,101605.78
2022-08-12T19:40:34.921Z,101603.91
2022-08-12T19:43:13.423Z,101598.47
2022-08-12T19:45:49.992Z,101603.91
2022-08-12T19:48:18.427Z,101603.06
2022-08-12T19:50:49.839Z,101601.03
2022-08-12T19:53:18.897Z,101600.19
2022-08-12T19:55:51.669Z,101602.91
2022-08-12T19:58:20.304Z,101600.19
2022-08-12T20:00:53.279Z,101608.38
2022-08-12T20:03:40.295Z,101608.38
2022-08-12T20:06:15.493Z,101616.53
2022-08-12T20:08:49.276Z,101620.97
2022-08-12T20:12:13.856Z,101611.94
2022-08-12T20:14:11.823Z,101613.81
2022-08-12T20:17:01.695Z,101616.53
2022-08-12T20:19:52.754Z,101612.78
2022-08-12T20:22:24.114Z,101620.97
2022-08-12T20:24:57.319Z,101620.97
2022-08-12T20:27:29.110Z,101622.84
2022-08-12T20:30:15.382Z,101619.97
2022-08-12T20:32:54.335Z,101618.25
2022-08-12T20:35:24.561Z,101618.25
2022-08-12T20:38:06.850Z,101612.78
2022-08-12T20:40:42.236Z,101612.78
2022-08-12T20:43:15.788Z,101617.94
2022-08-12T20:45:51.035Z,101622.53
2022-08-12T20:48:29.533Z,101614.50
2022-08-12T20:50:57.974Z,101619.97
2022-08-12T20:53:57.612Z,101614.50
2022-08-12T20:56:30.983Z,101608.22
2022-08-12T20:59:00.098Z,101613.53
2022-08-12T21:01:29.168Z,101618.97
2022-08-12T21:04:32.574Z,101618.97
2022-08-12T21:07:08.496Z,101620.66
2022-08-12T21:09:42.492Z,101617.38
2022-08-12T21:12:31.091Z,101616.69
2022-08-12T21:15:17.363Z,101623.00
2022-08-12T21:18:09.362Z,101620.25
2022-08-12T21:20:36.202Z,101616.53
2022-08-12T21:23:06.104Z,101624.03
2022-08-12T21:25:44.674Z,101616.84
2022-08-12T21:28:13.987Z,101616.00
2022-08-12T21:30:54.895Z,101610.53
2022-08-12T21:33:31.371Z,101611.53
2022-08-12T21:36:02.533Z,101611.41
2022-08-12T21:38:34.926Z,101615.13
2022-08-12T21:41:09.085Z,101612.69
2022-08-12T21:43:44.623Z,101608.44
2022-08-12T21:46:34.553Z,101614.56
2022-08-12T21:49:05.424Z,101614.72
2022-08-12T21:51:49.482Z,101614.72
2022-08-12T21:54:21.923Z,101615.72
2022-08-12T21:56:52.967Z,101618.59
2022-08-12T21:59:21.804Z,101610.03
2022-08-12T22:01:49.926Z,101609.88
2022-08-12T22:04:51.509Z,101616.06
2022-08-12T22:07:19.149Z,101619.97
2022-08-12T22:09:56.924Z,101616.97
2022-08-12T22:12:37.627Z,101618.97
2022-08-12T22:15:05.912Z,101622.09
2022-08-12T22:17:49.669Z,101623.28
2022-08-12T22:20:21.969Z,101626.00
2022-08-12T22:22:56.066Z,101628.16
2022-08-12T22:25:27.762Z,101621.84
2022-08-12T22:28:14.625Z,101630.72
2022-08-12T22:31:00.707Z,101634.88
2022-08-12T22:33:28.645Z,101634.59
2022-08-12T22:35:59.654Z,101639.63
2022-08-12T22:38:29.144Z,101634.47
2022-08-12T22:40:58.513Z,101641.06
2022-08-12T22:43:59.853Z,101636.59
2022-08-12T22:46:52.625Z,101629.19
2022-08-12T22:49:22.303Z,101626.19
2022-08-12T22:52:00.141Z,101628.31
2022-08-12T22:54:36.275Z,101629.06
2022-08-12T22:57:04.911Z,101630.22
2022-08-12T22:59:55.482Z,101632.94
2022-08-12T23:02:28.745Z,101627.34
2022-08-12T23:04:57.210Z,101627.91
2022-08-12T23:07:24.837Z,101623.47
2022-08-12T23:09:52.473Z,101624.88
2022-08-12T23:12:38.976Z,101624.06
2022-08-12T23:15:10.896Z,101623.94
2022-08-12T23:17:40.779Z,101619.91
2022-08-12T23:20:11.068Z,101625.06
2022-08-12T23:22:40.171Z,101622.03
2022-08-12T23:25:18.938Z,101619.63
2022-08-12T23:28:04.420Z,101624.50
2022-08-12T23:30:39.044Z,101627.22
2022-08-12T23:33:20.008Z,101627.53
2022-08-12T23:36:03.053Z,101623.94
2022-08-12T23:38:32.599Z,101625.94
2022-08-12T23:41:00.951Z,101624.53
2022-08-12T23:43:38.929Z,101626.38
2022-08-12T23:46:10.139Z,101625.50
2022-08-12T23:48:38.141Z,101621.34
2022-08-12T23:51:23.113Z,101621.03
2022-08-12T23:53:54.913Z,101627.66
2022-08-12T23:56:23.564Z,101630.56
2022-08-12T23:58:52.855Z,101630.25
